sensor_id;sensor_type;location;lat;lon;timestamp;temperature;humidity
674;DHT22;319;48.764;9.174;2023-02-13T00:01:22;4.60;99.90
674;DHT22;319;48.764;9.174;2023-02-13T00:03:49;4.50;99.90
674;DHT22;319;48.764;9.174;2023-02-13T00:06:15;4.60;99.90
674;DHT22;319;48.764;9.174;2023-02-13T00:08:43;4.50;99.90
674;DHT22;319;48.764;9.174;2023-02-13T00:11:10;4.50;99.90
674;DHT22;319;48.764;9.174;2023-02-13T00:13:37;4.40;99.90
674;DHT22;319;48.764;9.174;2023-02-13T00:16:04;4.40;99.90
674;DHT22;319;48.764;9.174;2023-02-13T00:18:34;4.40;99.90
674;DHT22;319;48.764;9.174;2023-02-13T00:21:03;4.00;99.90
674;DHT22;319;48.764;9.174;2023-02-13T00:23:31;4.50;99.90
674;DHT22;319;48.764;9.174;2023-02-13T00:26:03;4.40;99.90
674;DHT22;319;48.764;9.174;2023-02-13T00:28:30;4.40;99.90
674;DHT22;319;48.764;9.174;2023-02-13T00:31:02;4.40;99.90
674;DHT22;319;48.764;9.174;2023-02-13T00:36:04;4.30;99.90
674;DHT22;319;48.764;9.174;2023-02-13T00:38:31;4.20;99.90
674;DHT22;319;48.764;9.174;2023-02-13T00:41:00;4.30;99.90
674;DHT22;319;48.764;9.174;2023-02-13T00:43:26;4.30;99.90
674;DHT22;319;48.764;9.174;2023-02-13T00:45:53;4.20;99.90
674;DHT22;319;48.764;9.174;2023-02-13T00:48:20;4.20;99.90
674;DHT22;319;48.764;9.174;2023-02-13T00:50:47;4.30;99.90
674;DHT22;319;48.764;9.174;2023-02-13T00:53:14;4.20;99.90
674;DHT22;319;48.764;9.174;2023-02-13T00:55:41;4.20;99.90
674;DHT22;319;48.764;9.174;2023-02-13T00:58:09;4.20;99.90
674;DHT22;319;48.764;9.174;2023-02-13T01:00:36;3.90;99.90
674;DHT22;319;48.764;9.174;2023-02-13T01:03:03;4.20;99.90
674;DHT22;319;48.764;9.174;2023-02-13T01:05:30;4.20;99.90
674;DHT22;319;48.764;9.174;2023-02-13T01:07:56;4.20;99.90
674;DHT22;319;48.764;9.174;2023-02-13T01:10:24;4.10;99.90
674;DHT22;319;48.764;9.174;2023-02-13T01:12:51;4.10;99.90
674;DHT22;319;48.764;9.174;2023-02-13T01:15:21;4.20;99.90
674;DHT22;319;48.764;9.174;2023-02-13T01:17:47;4.20;99.90
674;DHT22;319;48.764;9.174;2023-02-13T01:20:14;4.10;99.90
674;DHT22;319;48.764;9.174;2023-02-13T01:22:41;4.10;99.90
674;DHT22;319;48.764;9.174;2023-02-13T01:25:09;3.70;99.90
674;DHT22;319;48.764;9.174;2023-02-13T01:27:36;4.10;99.90
674;DHT22;319;48.764;9.174;2023-02-13T01:30:04;4.00;99.90
674;DHT22;319;48.764;9.174;2023-02-13T01:32:36;4.00;99.90
674;DHT22;319;48.764;9.174;2023-02-13T01:35:03;4.20;99.90
674;DHT22;319;48.764;9.174;2023-02-13T01:37:30;4.00;99.90
674;DHT22;319;48.764;9.174;2023-02-13T01:39:57;4.00;99.90
674;DHT22;319;48.764;9.174;2023-02-13T01:42:25;4.10;99.90
674;DHT22;319;48.764;9.174;2023-02-13T01:44:54;4.10;99.90
674;DHT22;319;48.764;9.174;2023-02-13T01:47:26;4.00;99.90
674;DHT22;319;48.764;9.174;2023-02-13T01:50:02;3.90;99.90
674;DHT22;319;48.764;9.174;2023-02-13T01:52:29;3.90;99.90
674;DHT22;319;48.764;9.174;2023-02-13T01:54:57;4.10;99.90
674;DHT22;319;48.764;9.174;2023-02-13T01:57:25;3.90;99.90
674;DHT22;319;48.764;9.174;2023-02-13T01:59:55;3.70;99.90
674;DHT22;319;48.764;9.174;2023-02-13T02:02:23;3.90;99.90
674;DHT22;319;48.764;9.174;2023-02-13T02:04:50;3.80;99.90
674;DHT22;319;48.764;9.174;2023-02-13T02:07:21;3.80;99.90
674;DHT22;319;48.764;9.174;2023-02-13T02:09:49;3.80;99.90
674;DHT22;319;48.764;9.174;2023-02-13T02:12:24;3.80;99.90
674;DHT22;319;48.764;9.174;2023-02-13T02:14:52;4.20;99.90
674;DHT22;319;48.764;9.174;2023-02-13T02:17:20;3.80;99.90
674;DHT22;319;48.764;9.174;2023-02-13T02:19:54;3.80;99.90
674;DHT22;319;48.764;9.174;2023-02-13T02:22:52;3.70;99.90
674;DHT22;319;48.764;9.174;2023-02-13T02:29:15;3.60;99.90
674;DHT22;319;48.764;9.174;2023-02-13T02:32:07;3.70;99.90
674;DHT22;319;48.764;9.174;2023-02-13T02:34:46;3.50;99.90
674;DHT22;319;48.764;9.174;2023-02-13T02:37:24;3.60;99.90
674;DHT22;319;48.764;9.174;2023-02-13T02:40:03;3.70;99.90
674;DHT22;319;48.764;9.174;2023-02-13T02:42:42;3.90;99.90
674;DHT22;319;48.764;9.174;2023-02-13T02:45:21;3.60;99.90
674;DHT22;319;48.764;9.174;2023-02-13T02:47:54;3.60;99.90
674;DHT22;319;48.764;9.174;2023-02-13T02:50:41;3.60;99.90
674;DHT22;319;48.764;9.174;2023-02-13T02:53:20;3.70;99.90
674;DHT22;319;48.764;9.174;2023-02-13T02:55:53;3.50;99.90
674;DHT22;319;48.764;9.174;2023-02-13T02:58:24;3.70;99.90
674;DHT22;319;48.764;9.174;2023-02-13T03:01:12;3.50;99.90
674;DHT22;319;48.764;9.174;2023-02-13T03:03:59;3.50;99.90
674;DHT22;319;48.764;9.174;2023-02-13T03:06:46;4.00;99.90
674;DHT22;319;48.764;9.174;2023-02-13T03:09:18;3.60;99.90
674;DHT22;319;48.764;9.174;2023-02-13T03:12:04;3.70;99.90
674;DHT22;319;48.764;9.174;2023-02-13T03:14:49;3.60;99.90
674;DHT22;319;48.764;9.174;2023-02-13T03:17:17;3.60;99.90
674;DHT22;319;48.764;9.174;2023-02-13T03:20:11;3.50;99.90
674;DHT22;319;48.764;9.174;2023-02-13T03:23:06;3.50;99.90
674;DHT22;319;48.764;9.174;2023-02-13T03:25:40;3.50;99.90
674;DHT22;319;48.764;9.174;2023-02-13T03:28:16;3.50;99.90
674;DHT22;319;48.764;9.174;2023-02-13T03:31:14;3.40;99.90
674;DHT22;319;48.764;9.174;2023-02-13T03:33:54;3.50;99.90
674;DHT22;319;48.764;9.174;2023-02-13T03:36:32;3.90;99.90
674;DHT22;319;48.764;9.174;2023-02-13T03:39:20;3.40;99.90
674;DHT22;319;48.764;9.174;2023-02-13T03:41:51;3.30;99.90
674;DHT22;319;48.764;9.174;2023-02-13T03:44:26;3.40;99.90
674;DHT22;319;48.764;9.174;2023-02-13T03:46:57;3.40;99.90
674;DHT22;319;48.764;9.174;2023-02-13T03:49:39;3.40;99.90
674;DHT22;319;48.764;9.174;2023-02-13T03:52:30;3.40;99.90
674;DHT22;319;48.764;9.174;2023-02-13T03:55:01;3.90;99.90
674;DHT22;319;48.764;9.174;2023-02-13T03:57:48;5.00;99.90
674;DHT22;319;48.764;9.174;2023-02-13T04:00:36;3.40;99.90
674;DHT22;319;48.764;9.174;2023-02-13T04:03:14;3.40;99.90
674;DHT22;319;48.764;9.174;2023-02-13T04:05:46;3.50;99.90
674;DHT22;319;48.764;9.174;2023-02-13T04:08:16;3.40;99.90
674;DHT22;319;48.764;9.174;2023-02-13T04:10:51;3.40;99.90
674;DHT22;319;48.764;9.174;2023-02-13T04:13:23;3.30;99.90
674;DHT22;319;48.764;9.174;2023-02-13T04:15:55;3.40;99.90
674;DHT22;319;48.764;9.174;2023-02-13T04:18:24;3.40;99.90
674;DHT22;319;48.764;9.174;2023-02-13T04:20:52;3.40;99.90
674;DHT22;319;48.764;9.174;2023-02-13T04:23:20;3.30;99.90
674;DHT22;319;48.764;9.174;2023-02-13T04:25:50;3.30;99.90
674;DHT22;319;48.764;9.174;2023-02-13T04:28:17;3.40;99.90
674;DHT22;319;48.764;9.174;2023-02-13T04:30:44;3.30;99.90
674;DHT22;319;48.764;9.174;2023-02-13T04:33:11;3.30;99.90
674;DHT22;319;48.764;9.174;2023-02-13T04:35:38;5.90;99.90
674;DHT22;319;48.764;9.174;2023-02-13T04:38:04;3.40;99.90
674;DHT22;319;48.764;9.174;2023-02-13T04:40:32;3.20;99.90
674;DHT22;319;48.764;9.174;2023-02-13T04:42:59;3.20;99.90
674;DHT22;319;48.764;9.174;2023-02-13T04:45:26;3.30;99.90
674;DHT22;319;48.764;9.174;2023-02-13T04:47:54;3.20;99.90
674;DHT22;319;48.764;9.174;2023-02-13T04:50:21;3.20;99.90
674;DHT22;319;48.764;9.174;2023-02-13T04:52:52;3.30;99.90
674;DHT22;319;48.764;9.174;2023-02-13T04:55:18;3.10;99.90
674;DHT22;319;48.764;9.174;2023-02-13T04:57:47;3.10;99.90
674;DHT22;319;48.764;9.174;2023-02-13T05:00:14;3.10;99.90
674;DHT22;319;48.764;9.174;2023-02-13T05:02:40;3.40;99.90
674;DHT22;319;48.764;9.174;2023-02-13T05:05:07;3.20;99.90
674;DHT22;319;48.764;9.174;2023-02-13T05:07:34;3.20;99.90
674;DHT22;319;48.764;9.174;2023-02-13T05:10:01;3.10;99.90
674;DHT22;319;48.764;9.174;2023-02-13T05:12:27;3.20;99.90
674;DHT22;319;48.764;9.174;2023-02-13T05:14:55;3.00;99.90
674;DHT22;319;48.764;9.174;2023-02-13T05:17:22;3.30;99.90
674;DHT22;319;48.764;9.174;2023-02-13T05:19:49;3.20;99.90
674;DHT22;319;48.764;9.174;2023-02-13T05:22:16;3.20;99.90
674;DHT22;319;48.764;9.174;2023-02-13T05:25:00;3.10;99.90
674;DHT22;319;48.764;9.174;2023-02-13T05:27:26;3.20;99.90
674;DHT22;319;48.764;9.174;2023-02-13T05:29:54;3.10;99.90
674;DHT22;319;48.764;9.174;2023-02-13T05:32:24;3.10;99.90
674;DHT22;319;48.764;9.174;2023-02-13T05:34:51;3.10;99.90
674;DHT22;319;48.764;9.174;2023-02-13T05:37:18;3.10;99.90
674;DHT22;319;48.764;9.174;2023-02-13T05:39:45;3.10;99.90
674;DHT22;319;48.764;9.174;2023-02-13T05:42:12;3.10;99.90
674;DHT22;319;48.764;9.174;2023-02-13T05:44:39;3.20;99.90
674;DHT22;319;48.764;9.174;2023-02-13T05:47:08;3.20;99.90
674;DHT22;319;48.764;9.174;2023-02-13T05:49:35;3.00;99.90
674;DHT22;319;48.764;9.174;2023-02-13T05:52:02;2.80;99.90
674;DHT22;319;48.764;9.174;2023-02-13T05:54:28;3.10;99.90
674;DHT22;319;48.764;9.174;2023-02-13T05:56:55;3.10;99.90
674;DHT22;319;48.764;9.174;2023-02-13T05:59:22;3.00;99.90
674;DHT22;319;48.764;9.174;2023-02-13T06:01:48;3.20;99.90
674;DHT22;319;48.764;9.174;2023-02-13T06:04:16;3.80;99.90
674;DHT22;319;48.764;9.174;2023-02-13T06:06:43;3.00;99.90
674;DHT22;319;48.764;9.174;2023-02-13T06:09:10;3.00;99.90
674;DHT22;319;48.764;9.174;2023-02-13T06:11:37;3.20;99.90
674;DHT22;319;48.764;9.174;2023-02-13T06:14:04;3.00;99.90
674;DHT22;319;48.764;9.174;2023-02-13T06:16:30;2.90;99.90
674;DHT22;319;48.764;9.174;2023-02-13T06:18:57;3.10;99.90
674;DHT22;319;48.764;9.174;2023-02-13T06:21:25;3.00;99.90
674;DHT22;319;48.764;9.174;2023-02-13T06:23:52;3.10;99.90
674;DHT22;319;48.764;9.174;2023-02-13T06:26:19;3.00;99.90
674;DHT22;319;48.764;9.174;2023-02-13T06:28:46;3.00;99.90
674;DHT22;319;48.764;9.174;2023-02-13T06:31:12;2.90;99.90
674;DHT22;319;48.764;9.174;2023-02-13T06:33:39;2.90;99.90
674;DHT22;319;48.764;9.174;2023-02-13T06:36:06;3.00;99.90
674;DHT22;319;48.764;9.174;2023-02-13T06:38:34;2.90;99.90
674;DHT22;319;48.764;9.174;2023-02-13T06:41:01;3.00;99.90
674;DHT22;319;48.764;9.174;2023-02-13T06:43:28;2.90;99.90
674;DHT22;319;48.764;9.174;2023-02-13T06:45:55;3.00;99.90
674;DHT22;319;48.764;9.174;2023-02-13T06:48:22;3.00;99.90
674;DHT22;319;48.764;9.174;2023-02-13T06:50:49;3.00;99.90
674;DHT22;319;48.764;9.174;2023-02-13T06:53:17;3.10;99.90
674;DHT22;319;48.764;9.174;2023-02-13T06:55:50;3.10;99.90
674;DHT22;319;48.764;9.174;2023-02-13T06:58:17;3.10;99.90
674;DHT22;319;48.764;9.174;2023-02-13T07:00:44;3.10;99.90
674;DHT22;319;48.764;9.174;2023-02-13T07:03:11;3.20;99.90
674;DHT22;319;48.764;9.174;2023-02-13T07:05:38;3.60;99.90
674;DHT22;319;48.764;9.174;2023-02-13T07:08:05;3.20;99.90
674;DHT22;319;48.764;9.174;2023-02-13T07:10:32;3.20;99.90
674;DHT22;319;48.764;9.174;2023-02-13T07:13:00;3.20;99.90
674;DHT22;319;48.764;9.174;2023-02-13T07:15:27;3.20;99.90
674;DHT22;319;48.764;9.174;2023-02-13T07:17:56;3.30;99.90
674;DHT22;319;48.764;9.174;2023-02-13T07:20:24;3.30;99.90
674;DHT22;319;48.764;9.174;2023-02-13T07:25:18;3.30;99.90
674;DHT22;319;48.764;9.174;2023-02-13T07:27:44;3.30;99.90
674;DHT22;319;48.764;9.174;2023-02-13T07:30:13;3.30;99.90
674;DHT22;319;48.764;9.174;2023-02-13T07:32:40;3.30;99.90
674;DHT22;319;48.764;9.174;2023-02-13T07:35:07;3.00;99.90
674;DHT22;319;48.764;9.174;2023-02-13T07:37:33;3.40;99.90
674;DHT22;319;48.764;9.174;2023-02-13T07:40:00;3.40;99.90
674;DHT22;319;48.764;9.174;2023-02-13T07:42:29;3.50;99.90
674;DHT22;319;48.764;9.174;2023-02-13T07:44:57;3.40;99.90
674;DHT22;319;48.764;9.174;2023-02-13T07:47:25;3.60;99.90
674;DHT22;319;48.764;9.174;2023-02-13T07:49:52;3.60;99.90
674;DHT22;319;48.764;9.174;2023-02-13T07:52:19;3.60;99.90
674;DHT22;319;48.764;9.174;2023-02-13T07:54:46;3.70;99.90
674;DHT22;319;48.764;9.174;2023-02-13T07:57:13;3.70;99.90
674;DHT22;319;48.764;9.174;2023-02-13T07:59:39;3.70;99.90
674;DHT22;319;48.764;9.174;2023-02-13T08:02:09;3.80;99.90
674;DHT22;319;48.764;9.174;2023-02-13T08:04:39;3.90;99.90
674;DHT22;319;48.764;9.174;2023-02-13T08:07:06;4.00;99.90
674;DHT22;319;48.764;9.174;2023-02-13T08:09:32;3.60;99.90
674;DHT22;319;48.764;9.174;2023-02-13T08:12:17;4.40;99.90
674;DHT22;319;48.764;9.174;2023-02-13T08:14:43;4.20;99.90
674;DHT22;319;48.764;9.174;2023-02-13T08:17:10;4.40;99.90
674;DHT22;319;48.764;9.174;2023-02-13T08:19:39;4.40;99.90
674;DHT22;319;48.764;9.174;2023-02-13T08:22:05;4.60;99.90
674;DHT22;319;48.764;9.174;2023-02-13T08:24:32;4.60;99.90
674;DHT22;319;48.764;9.174;2023-02-13T08:26:59;4.80;99.90
674;DHT22;319;48.764;9.174;2023-02-13T08:29:25;4.90;99.90
674;DHT22;319;48.764;9.174;2023-02-13T08:31:52;5.70;99.90
674;DHT22;319;48.764;9.174;2023-02-13T08:34:19;5.20;99.90
674;DHT22;319;48.764;9.174;2023-02-13T08:36:47;5.30;99.90
674;DHT22;319;48.764;9.174;2023-02-13T08:39:14;5.50;99.90
674;DHT22;319;48.764;9.174;2023-02-13T08:41:40;5.80;99.90
674;DHT22;319;48.764;9.174;2023-02-13T08:44:08;6.20;99.90
674;DHT22;319;48.764;9.174;2023-02-13T08:46:35;6.90;99.90
674;DHT22;319;48.764;9.174;2023-02-13T08:49:02;7.70;99.90
674;DHT22;319;48.764;9.174;2023-02-13T08:51:29;8.40;99.90
674;DHT22;319;48.764;9.174;2023-02-13T08:53:57;8.90;99.10
674;DHT22;319;48.764;9.174;2023-02-13T08:56:24;9.50;98.30
674;DHT22;319;48.764;9.174;2023-02-13T08:58:50;10.20;96.20
674;DHT22;319;48.764;9.174;2023-02-13T09:01:18;10.70;95.10
674;DHT22;319;48.764;9.174;2023-02-13T09:03:44;10.90;99.90
674;DHT22;319;48.764;9.174;2023-02-13T09:06:12;10.90;93.50
674;DHT22;319;48.764;9.174;2023-02-13T09:08:38;10.10;99.90
674;DHT22;319;48.764;9.174;2023-02-13T09:11:08;10.30;93.70
674;DHT22;319;48.764;9.174;2023-02-13T09:13:35;10.00;94.00
674;DHT22;319;48.764;9.174;2023-02-13T09:16:03;9.80;95.20
674;DHT22;319;48.764;9.174;2023-02-13T09:18:31;9.70;95.70
674;DHT22;319;48.764;9.174;2023-02-13T09:20:59;9.90;95.70
674;DHT22;319;48.764;9.174;2023-02-13T09:23:29;9.90;95.40
674;DHT22;319;48.764;9.174;2023-02-13T09:25:58;9.80;95.40
674;DHT22;319;48.764;9.174;2023-02-13T09:28:26;9.80;95.60
674;DHT22;319;48.764;9.174;2023-02-13T09:30:53;9.70;95.60
674;DHT22;319;48.764;9.174;2023-02-13T09:33:19;9.70;95.80
674;DHT22;319;48.764;9.174;2023-02-13T09:35:46;9.40;95.90
674;DHT22;319;48.764;9.174;2023-02-13T09:38:13;9.30;96.30
674;DHT22;319;48.764;9.174;2023-02-13T09:40:43;9.30;99.90
674;DHT22;319;48.764;9.174;2023-02-13T09:43:13;9.10;96.90
674;DHT22;319;48.764;9.174;2023-02-13T09:45:44;9.40;97.40
674;DHT22;319;48.764;9.174;2023-02-13T09:48:18;9.20;97.20
674;DHT22;319;48.764;9.174;2023-02-13T09:50:50;9.40;97.10
674;DHT22;319;48.764;9.174;2023-02-13T09:53:20;9.60;97.00
674;DHT22;319;48.764;9.174;2023-02-13T09:55:57;9.80;96.40
674;DHT22;319;48.764;9.174;2023-02-13T09:58:39;10.00;95.50
674;DHT22;319;48.764;9.174;2023-02-13T10:01:18;10.00;95.40
674;DHT22;319;48.764;9.174;2023-02-13T10:03:52;10.20;95.40
674;DHT22;319;48.764;9.174;2023-02-13T10:06:28;10.40;95.40
674;DHT22;319;48.764;9.174;2023-02-13T10:09:09;10.00;94.80
674;DHT22;319;48.764;9.174;2023-02-13T10:11:59;10.40;94.90
674;DHT22;319;48.764;9.174;2023-02-13T10:14:37;10.50;94.70
674;DHT22;319;48.764;9.174;2023-02-13T10:17:13;10.20;94.70
674;DHT22;319;48.764;9.174;2023-02-13T10:19:44;10.10;95.10
674;DHT22;319;48.764;9.174;2023-02-13T10:22:14;10.20;95.10
674;DHT22;319;48.764;9.174;2023-02-13T10:24:45;10.20;95.00
674;DHT22;319;48.764;9.174;2023-02-13T10:27:21;10.00;95.20
674;DHT22;319;48.764;9.174;2023-02-13T10:29:54;10.00;95.40
674;DHT22;319;48.764;9.174;2023-02-13T10:32:37;10.00;95.30
674;DHT22;319;48.764;9.174;2023-02-13T10:35:16;9.60;99.90
674;DHT22;319;48.764;9.174;2023-02-13T10:37:45;10.00;95.30
674;DHT22;319;48.764;9.174;2023-02-13T10:40:16;10.00;95.00
674;DHT22;319;48.764;9.174;2023-02-13T10:42:44;9.90;95.70
674;DHT22;319;48.764;9.174;2023-02-13T10:45:40;9.60;99.90
674;DHT22;319;48.764;9.174;2023-02-13T10:48:28;10.00;95.10
674;DHT22;319;48.764;9.174;2023-02-13T10:51:03;10.10;95.00
674;DHT22;319;48.764;9.174;2023-02-13T10:53:41;10.20;94.90
674;DHT22;319;48.764;9.174;2023-02-13T10:56:22;10.20;95.10
674;DHT22;319;48.764;9.174;2023-02-13T10:59:01;10.20;95.10
674;DHT22;319;48.764;9.174;2023-02-13T11:01:34;10.20;95.20
674;DHT22;319;48.764;9.174;2023-02-13T11:04:08;10.20;95.30
674;DHT22;319;48.764;9.174;2023-02-13T11:06:37;10.30;95.20
674;DHT22;319;48.764;9.174;2023-02-13T11:09:08;10.40;95.10
674;DHT22;319;48.764;9.174;2023-02-13T11:11:39;10.40;95.00
674;DHT22;319;48.764;9.174;2023-02-13T11:14:14;10.60;94.50
674;DHT22;319;48.764;9.174;2023-02-13T11:16:48;10.70;94.30
674;DHT22;319;48.764;9.174;2023-02-13T11:19:24;10.80;94.10
674;DHT22;319;48.764;9.174;2023-02-13T11:21:58;10.80;93.90
674;DHT22;319;48.764;9.174;2023-02-13T11:24:27;10.90;93.70
674;DHT22;319;48.764;9.174;2023-02-13T11:26:58;10.90;93.50
674;DHT22;319;48.764;9.174;2023-02-13T11:29:28;11.10;93.20
674;DHT22;319;48.764;9.174;2023-02-13T11:32:19;11.00;92.80
674;DHT22;319;48.764;9.174;2023-02-13T11:34:47;11.00;92.70
674;DHT22;319;48.764;9.174;2023-02-13T11:37:19;11.00;99.90
674;DHT22;319;48.764;9.174;2023-02-13T11:39:47;10.90;92.90
674;DHT22;319;48.764;9.174;2023-02-13T11:42:15;10.80;93.00
674;DHT22;319;48.764;9.174;2023-02-13T11:44:48;10.80;93.00
674;DHT22;319;48.764;9.174;2023-02-13T11:47:15;10.70;92.90
674;DHT22;319;48.764;9.174;2023-02-13T11:49:45;10.70;92.90
674;DHT22;319;48.764;9.174;2023-02-13T11:52:23;10.60;92.80
674;DHT22;319;48.764;9.174;2023-02-13T11:54:56;10.70;92.80
674;DHT22;319;48.764;9.174;2023-02-13T11:57:28;10.90;92.70
674;DHT22;319;48.764;9.174;2023-02-13T11:59:56;11.00;92.50
674;DHT22;319;48.764;9.174;2023-02-13T12:02:25;11.00;92.50
674;DHT22;319;48.764;9.174;2023-02-13T12:04:53;11.10;92.50
674;DHT22;319;48.764;9.174;2023-02-13T12:07:24;11.10;92.40
674;DHT22;319;48.764;9.174;2023-02-13T12:09:59;11.00;92.20
674;DHT22;319;48.764;9.174;2023-02-13T12:12:33;10.80;92.40
674;DHT22;319;48.764;9.174;2023-02-13T12:15:06;10.90;99.30
674;DHT22;319;48.764;9.174;2023-02-13T12:17:42;10.70;92.60
674;DHT22;319;48.764;9.174;2023-02-13T12:20:12;10.60;92.80
674;DHT22;319;48.764;9.174;2023-02-13T12:22:50;10.50;92.80
674;DHT22;319;48.764;9.174;2023-02-13T12:25:38;10.40;92.90
674;DHT22;319;48.764;9.174;2023-02-13T12:28:14;10.40;93.10
674;DHT22;319;48.764;9.174;2023-02-13T12:30:59;10.40;93.20
674;DHT22;319;48.764;9.174;2023-02-13T12:33:50;10.50;93.30
674;DHT22;319;48.764;9.174;2023-02-13T12:36:21;10.60;93.20
674;DHT22;319;48.764;9.174;2023-02-13T12:39:03;10.70;93.10
674;DHT22;319;48.764;9.174;2023-02-13T12:41:40;10.80;93.10
674;DHT22;319;48.764;9.174;2023-02-13T12:44:31;10.90;93.10
674;DHT22;319;48.764;9.174;2023-02-13T12:47:09;10.70;93.00
674;DHT22;319;48.764;9.174;2023-02-13T12:49:56;10.60;93.40
674;DHT22;319;48.764;9.174;2023-02-13T12:52:35;10.70;93.30
674;DHT22;319;48.764;9.174;2023-02-13T12:58:11;10.70;93.30
674;DHT22;319;48.764;9.174;2023-02-13T13:00:46;10.90;93.50
674;DHT22;319;48.764;9.174;2023-02-13T13:03:30;11.00;93.20
674;DHT22;319;48.764;9.174;2023-02-13T13:09:31;11.10;92.90
674;DHT22;319;48.764;9.174;2023-02-13T13:12:23;11.20;92.90
674;DHT22;319;48.764;9.174;2023-02-13T13:15:00;11.30;92.90
674;DHT22;319;48.764;9.174;2023-02-13T13:17:43;11.30;92.80
674;DHT22;319;48.764;9.174;2023-02-13T13:20:26;11.40;92.70
674;DHT22;319;48.764;9.174;2023-02-13T13:23:04;11.40;92.60
674;DHT22;319;48.764;9.174;2023-02-13T13:25:37;11.40;92.50
674;DHT22;319;48.764;9.174;2023-02-13T13:28:12;11.40;92.60
674;DHT22;319;48.764;9.174;2023-02-13T13:30:41;11.50;92.60
674;DHT22;319;48.764;9.174;2023-02-13T13:33:13;11.40;92.40
674;DHT22;319;48.764;9.174;2023-02-13T13:35:44;11.20;92.70
674;DHT22;319;48.764;9.174;2023-02-13T13:38:15;11.10;92.90
674;DHT22;319;48.764;9.174;2023-02-13T13:40:51;11.20;93.10
674;DHT22;319;48.764;9.174;2023-02-13T13:43:29;11.30;93.10
674;DHT22;319;48.764;9.174;2023-02-13T13:46:05;11.30;92.90
674;DHT22;319;48.764;9.174;2023-02-13T13:48:53;11.40;92.70
674;DHT22;319;48.764;9.174;2023-02-13T13:51:23;11.40;92.70
674;DHT22;319;48.764;9.174;2023-02-13T13:54:17;11.40;92.30
674;DHT22;319;48.764;9.174;2023-02-13T13:57:08;11.30;92.30
674;DHT22;319;48.764;9.174;2023-02-13T14:00:00;11.30;92.70
674;DHT22;319;48.764;9.174;2023-02-13T14:02:41;11.10;92.80
674;DHT22;319;48.764;9.174;2023-02-13T14:05:23;10.80;99.90
674;DHT22;319;48.764;9.174;2023-02-13T14:07:52;10.90;93.30
674;DHT22;319;48.764;9.174;2023-02-13T14:13:34;11.00;93.50
674;DHT22;319;48.764;9.174;2023-02-13T14:16:03;11.10;93.40
674;DHT22;319;48.764;9.174;2023-02-13T14:18:31;11.20;93.20
674;DHT22;319;48.764;9.174;2023-02-13T14:20:59;11.30;93.00
674;DHT22;319;48.764;9.174;2023-02-13T14:23:43;11.10;92.90
674;DHT22;319;48.764;9.174;2023-02-13T14:29:29;11.20;93.00
674;DHT22;319;48.764;9.174;2023-02-13T14:32:13;11.20;93.00
674;DHT22;319;48.764;9.174;2023-02-13T14:34:42;11.20;92.70
674;DHT22;319;48.764;9.174;2023-02-13T14:37:20;11.20;92.70
674;DHT22;319;48.764;9.174;2023-02-13T14:42:59;11.10;92.70
674;DHT22;319;48.764;9.174;2023-02-13T14:45:29;11.10;92.70
674;DHT22;319;48.764;9.174;2023-02-13T14:48:04;11.20;92.90
674;DHT22;319;48.764;9.174;2023-02-13T14:50:39;11.20;92.80
674;DHT22;319;48.764;9.174;2023-02-13T14:53:19;11.20;92.90
674;DHT22;319;48.764;9.174;2023-02-13T14:55:53;11.20;92.90
674;DHT22;319;48.764;9.174;2023-02-13T14:58:24;11.20;92.70
674;DHT22;319;48.764;9.174;2023-02-13T15:00:55;10.90;99.90
674;DHT22;319;48.764;9.174;2023-02-13T15:03:28;10.90;92.70
674;DHT22;319;48.764;9.174;2023-02-13T15:05:58;11.00;92.80
674;DHT22;319;48.764;9.174;2023-02-13T15:08:28;11.00;92.80
674;DHT22;319;48.764;9.174;2023-02-13T15:10:57;11.00;92.80
674;DHT22;319;48.764;9.174;2023-02-13T15:13:31;10.80;92.90
674;DHT22;319;48.764;9.174;2023-02-13T15:16:00;10.60;93.00
674;DHT22;319;48.764;9.174;2023-02-13T15:18:34;10.80;93.20
674;DHT22;319;48.764;9.174;2023-02-13T15:21:03;10.70;93.60
674;DHT22;319;48.764;9.174;2023-02-13T15:23:32;10.70;93.60
674;DHT22;319;48.764;9.174;2023-02-13T15:26:00;10.80;93.60
674;DHT22;319;48.764;9.174;2023-02-13T15:28:27;10.80;93.60
674;DHT22;319;48.764;9.174;2023-02-13T15:30:57;10.80;93.60
674;DHT22;319;48.764;9.174;2023-02-13T15:33:26;10.80;93.40
674;DHT22;319;48.764;9.174;2023-02-13T15:35:56;10.70;93.40
674;DHT22;319;48.764;9.174;2023-02-13T15:38:27;10.50;93.50
674;DHT22;319;48.764;9.174;2023-02-13T15:40:57;10.50;93.80
674;DHT22;319;48.764;9.174;2023-02-13T15:43:32;10.50;94.00
674;DHT22;319;48.764;9.174;2023-02-13T15:46:02;10.40;94.00
674;DHT22;319;48.764;9.174;2023-02-13T15:48:32;10.40;94.20
674;DHT22;319;48.764;9.174;2023-02-13T15:51:01;10.30;94.10
674;DHT22;319;48.764;9.174;2023-02-13T15:53:28;10.20;94.20
674;DHT22;319;48.764;9.174;2023-02-13T15:55:57;10.20;94.30
674;DHT22;319;48.764;9.174;2023-02-13T15:58:28;10.10;94.60
674;DHT22;319;48.764;9.174;2023-02-13T16:00:55;10.10;94.50
674;DHT22;319;48.764;9.174;2023-02-13T16:03:26;10.10;94.60
674;DHT22;319;48.764;9.174;2023-02-13T16:05:53;10.00;94.60
674;DHT22;319;48.764;9.174;2023-02-13T16:08:30;10.00;94.70
674;DHT22;319;48.764;9.174;2023-02-13T16:11:21;9.90;95.20
674;DHT22;319;48.764;9.174;2023-02-13T16:14:00;9.80;95.20
674;DHT22;319;48.764;9.174;2023-02-13T16:16:27;9.80;95.40
674;DHT22;319;48.764;9.174;2023-02-13T16:18:56;9.70;95.50
674;DHT22;319;48.764;9.174;2023-02-13T16:21:26;9.60;95.80
674;DHT22;319;48.764;9.174;2023-02-13T16:23:59;9.50;96.10
674;DHT22;319;48.764;9.174;2023-02-13T16:26:26;9.40;96.20
674;DHT22;319;48.764;9.174;2023-02-13T16:28:53;9.30;96.40
674;DHT22;319;48.764;9.174;2023-02-13T16:31:20;9.30;96.60
674;DHT22;319;48.764;9.174;2023-02-13T16:33:48;9.20;96.70
674;DHT22;319;48.764;9.174;2023-02-13T16:36:25;9.20;96.80
674;DHT22;319;48.764;9.174;2023-02-13T16:38:53;8.90;96.80
674;DHT22;319;48.764;9.174;2023-02-13T16:41:31;9.00;97.10
674;DHT22;319;48.764;9.174;2023-02-13T16:43:58;8.90;97.40
674;DHT22;319;48.764;9.174;2023-02-13T16:46:30;8.80;97.30
674;DHT22;319;48.764;9.174;2023-02-13T16:49:04;8.70;97.60
674;DHT22;319;48.764;9.174;2023-02-13T16:51:35;8.60;97.80
674;DHT22;319;48.764;9.174;2023-02-13T16:54:04;8.50;98.00
674;DHT22;319;48.764;9.174;2023-02-13T16:56:41;8.50;98.20
674;DHT22;319;48.764;9.174;2023-02-13T16:59:23;8.40;98.30
674;DHT22;319;48.764;9.174;2023-02-13T17:02:19;8.40;98.40
674;DHT22;319;48.764;9.174;2023-02-13T17:04:49;8.30;98.50
674;DHT22;319;48.764;9.174;2023-02-13T17:07:19;8.30;98.60
674;DHT22;319;48.764;9.174;2023-02-13T17:09:51;8.20;98.70
674;DHT22;319;48.764;9.174;2023-02-13T17:12:20;8.10;98.80
674;DHT22;319;48.764;9.174;2023-02-13T17:14:47;8.10;98.90
674;DHT22;319;48.764;9.174;2023-02-13T17:17:16;8.00;99.10
674;DHT22;319;48.764;9.174;2023-02-13T17:19:43;8.00;99.10
674;DHT22;319;48.764;9.174;2023-02-13T17:22:30;7.90;99.20
674;DHT22;319;48.764;9.174;2023-02-13T17:24:58;8.00;99.90
674;DHT22;319;48.764;9.174;2023-02-13T17:27:26;7.80;99.50
674;DHT22;319;48.764;9.174;2023-02-13T17:29:53;7.80;99.70
674;DHT22;319;48.764;9.174;2023-02-13T17:32:21;7.70;99.70
674;DHT22;319;48.764;9.174;2023-02-13T17:34:49;7.70;99.70
674;DHT22;319;48.764;9.174;2023-02-13T17:37:18;7.60;99.60
674;DHT22;319;48.764;9.174;2023-02-13T17:39:46;7.40;99.70
674;DHT22;319;48.764;9.174;2023-02-13T17:42:16;7.20;99.90